METAR Data
IDs: Format: Raw Decoded Include TAF

Data at: 1859 UTC 14 Dec 2018

KFST 141853Z AUTO 33014KT 10SM CLR 09/M11 A3037 RMK AO2 SLP271 T00941111
KFST 141753Z AUTO 33015G22KT 10SM CLR 08/M11 A3040 RMK AO2 SLP284 T00831111 10083 21011 50006
KFST 141653Z AUTO 33013KT 10SM CLR 07/M11 A3041 RMK AO2 SLP287 T00721111
KFST 141553Z AUTO 31012KT 10SM CLR 05/M09 A3040 RMK AO2 SLP284 T00501094
KFST 141453Z AUTO 30010KT 10SM CLR 02/M09 A3038 RMK AO2 SLP281 T00221089 53022
KFST 141353Z AUTO 29012KT 10SM CLR M01/M09 A3036 RMK AO2 SLP275 T10061089
KFST 141253Z AUTO 29011KT 10SM CLR M01/M08 A3033 RMK AO2 SLP264 T10061083
KFST 141153Z AUTO 29012KT 10SM CLR M01/M08 A3031 RMK AO2 SLP256 70002 T10111078 10011 21011 51007
KFST 141053Z AUTO 28011KT 10SM CLR M01/M08 A3031 RMK AO2 SLP253 T10061078
KFST 140953Z AUTO 28012KT 10SM CLR 00/M08 A3030 RMK AO2 SLP250 T00001078
KFST 140853Z AUTO 29010KT 10SM CLR 01/M08 A3029 RMK AO2 SLP247 T00061083 53008
KFST 140753Z AUTO 30010KT 10SM CLR 01/M08 A3027 RMK AO2 SLP243 T00111083
KFST 140653Z AUTO 31011KT 10SM CLR 01/M08 A3027 RMK AO2 SLP244 T00111078
KFST 140553Z AUTO 31010KT 10SM CLR 01/M07 A3026 RMK AO2 SLP242 T00111072 10078 20011 401280011 51014
KFST 140453Z AUTO 32011KT 10SM CLR 03/M07 A3026 RMK AO2 SLP238 T00281067
KFST 140353Z AUTO 33012KT 10SM CLR 03/M06 A3024 RMK AO2 SLP230 T00331061
KFST 140253Z AUTO 30010KT 10SM CLR 04/M06 A3022 RMK AO2 SLP220 T00391056 53022
KFST 140153Z AUTO 30010KT 10SM CLR 05/M06 A3019 RMK AO2 SLP208 T00501056
KFST 140053Z AUTO 31013KT 10SM CLR 07/M06 A3016 RMK AO2 SLP197 T00671061
KFST 132353Z AUTO 32017G25KT 10SM CLR 08/M07 A3014 RMK AO2 PK WND 32036/2254 SLP187 60001 T00781067 10094 20039 55002
KFST 132253Z AUTO 32029G37KT 10SM CLR 09/M07 A3012 RMK AO2 PK WND 32037/2253 SLP175 T00941067
KFST 132153Z AUTO 32026G33KT 10SM FEW090 09/M04 A3013 RMK AO2 PK WND 32033/2151 SLP180 T00891044
KFST 132053Z AUTO 30017G25KT 10SM OVC080 07/M02 A3015 RMK AO2 PK WND 34035/1958 SLP190 60001 T00671022 50001
KFST 131953Z AUTO 32028G40KT 10SM BKN044 OVC055 06/M03 A3015 RMK AO2 PK WND 33040/1951 RAE18 SLP190 P0000 T00611028
KFST 131853Z AUTO 33025G35KT 10SM -RA FEW028 BKN043 OVC055 05/00 A3015 RMK AO2 PK WND 33038/1835 RAE1759B09 SLP189 P0001 T00500000
KFST 131803Z AUTO 33022G31KT 10SM FEW021 BKN036 OVC047 05/01 A3015 RMK AO2 PK WND 33031/1757 RAE1759 P0000 T00500011
KFST 131753Z AUTO 34026G33KT 10SM -RA SCT021 BKN028 OVC037 04/01 A3015 RMK AO2 PK WND 33034/1659 SLP189 P0001 60001 T00440011 10106 20033 51051
KFST 131653Z AUTO 32020G33KT 10SM -RA BKN019 OVC027 04/02 A3013 RMK AO2 PK WND 32033/1645 SLP185 P0000 T00390017
KFST 131553Z AUTO 32023G36KT 10SM -RA BKN018 OVC023 04/02 A3008 RMK AO2 PK WND 30040/1454 RAB38 SLP167 P0000 T00390017
KFST 131524Z AUTO 32027G36KT 10SM BKN022 BKN028 OVC035 05/01 A3003 RMK AO2 PK WND 30040/1454 PRESRR T00500011
KFST 131453Z AUTO 30028G45KT 10SM BKN030 06/01 A2998 RMK AO2 PK WND 31050/1421 RAB22E32 SLP132 P0000 60000 T00560006 53043
KFST 131353Z AUTO 29019G26KT 10SM CLR 07/M08 A2992 RMK AO2 PK WND 30031/1312 SLP107 T00671078
KFST 131253Z AUTO 30023G32KT 10SM SCT075 BKN090 08/M08 A2988 RMK AO2 PK WND 30033/1243 SLP095 T00831083
KFST 131153Z AUTO 30024G39KT 10SM SCT065 11/M05 A2984 RMK AO2 PK WND 30042/1132 PRESRR SLP076 T01061050 10133 20106 53018
KFST 131053Z AUTO 28015KT 10SM CLR 12/02 A2980 RMK AO2 SLP057 T01170017
KFST 130953Z AUTO 27014G22KT 10SM CLR 13/03 A2979 RMK AO2 SLP054 T01280028
KFST 130853Z AUTO 23010KT 10SM CLR 11/05 A2978 RMK AO2 SLP052 T01110050 56010
KFST 130753Z AUTO 22013KT 10SM CLR 12/06 A2979 RMK AO2 SLP055 T01220056